createdAt,value
2023-03-22T00:00:17.476Z,10.40
2023-03-22T00:02:46.558Z,10.40
2023-03-22T00:05:13.656Z,10.40
2023-03-22T00:07:43.763Z,10.30
2023-03-22T00:10:11.575Z,10.30
2023-03-22T00:12:39.573Z,10.30
2023-03-22T00:15:08.285Z,10.30
2023-03-22T00:17:36.695Z,10.20
2023-03-22T00:20:07.380Z,10.20
2023-03-22T00:22:35.353Z,10.20
2023-03-22T00:25:05.509Z,10.20
2023-03-22T00:27:35.504Z,10.20
2023-03-22T00:30:06.757Z,10.20
2023-03-22T00:32:38.856Z,10.20
2023-03-22T00:35:09.532Z,10.20
2023-03-22T00:37:39.013Z,10.20
2023-03-22T00:40:10.877Z,10.20
2023-03-22T00:42:38.847Z,10.20
2023-03-22T00:45:12.454Z,10.20
2023-03-22T00:47:42.571Z,10.30
2023-03-22T00:50:09.992Z,10.30
2023-03-22T00:52:40.463Z,10.30
2023-03-22T00:55:08.107Z,10.40
2023-03-22T00:57:35.082Z,10.50
2023-03-22T01:00:13.970Z,10.50
2023-03-22T01:02:42.747Z,10.60
2023-03-22T01:05:15.900Z,10.60
2023-03-22T01:07:43.653Z,10.70
2023-03-22T01:10:12.788Z,10.80
2023-03-22T01:12:39.779Z,10.80
2023-03-22T01:15:13.075Z,10.80
2023-03-22T01:17:40.450Z,10.80
2023-03-22T01:20:13.608Z,10.80
2023-03-22T01:22:40.986Z,10.80
2023-03-22T01:25:08.452Z,10.90
2023-03-22T01:27:35.757Z,10.90
2023-03-22T01:30:03.035Z,10.90
2023-03-22T01:32:33.361Z,11.00
2023-03-22T01:35:01.539Z,11.00
2023-03-22T01:37:29.994Z,10.90
2023-03-22T01:39:58.117Z,11.00
2023-03-22T01:42:26.423Z,11.00
2023-03-22T01:45:13.148Z,11.00
2023-03-22T01:47:56.330Z,11.00
2023-03-22T01:50:25.942Z,11.00
2023-03-22T01:52:53.594Z,11.00
2023-03-22T01:55:22.947Z,11.00
2023-03-22T01:57:53.219Z,11.00
2023-03-22T02:00:22.498Z,11.00
2023-03-22T02:02:53.250Z,11.00
2023-03-22T02:05:22.378Z,11.00
2023-03-22T02:07:53.179Z,10.90
2023-03-22T02:10:24.429Z,10.90
2023-03-22T02:13:26.177Z,10.90
2023-03-22T02:16:33.065Z,10.90
2023-03-22T02:19:30.720Z,10.90
2023-03-22T02:22:26.070Z,10.90
2023-03-22T02:25:30.467Z,10.90
2023-03-22T02:28:43.769Z,10.90
2023-03-22T02:31:32.958Z,10.90
2023-03-22T02:34:23.895Z,10.90
2023-03-22T02:36:58.067Z,10.80
2023-03-22T02:40:03.628Z,10.80
2023-03-22T02:43:08.999Z,10.80
2023-03-22T02:45:53.484Z,10.80
2023-03-22T02:48:49.438Z,10.80
2023-03-22T02:51:32.787Z,10.80
2023-03-22T02:54:08.479Z,10.70
2023-03-22T02:56:53.072Z,10.70
2023-03-22T02:59:28.524Z,10.70
2023-03-22T03:02:00.386Z,10.70
2023-03-22T03:04:32.233Z,10.70
2023-03-22T03:07:09.502Z,10.70
2023-03-22T03:09:40.628Z,10.60
2023-03-22T03:12:28.284Z,10.60
2023-03-22T03:14:57.471Z,10.60
2023-03-22T03:17:38.294Z,10.60
2023-03-22T03:20:30.182Z,10.60
2023-03-22T03:23:22.230Z,10.50
2023-03-22T03:26:23.122Z,10.60
2023-03-22T03:29:00.347Z,10.60
2023-03-22T03:31:49.081Z,10.60
2023-03-22T03:34:49.698Z,10.60
2023-03-22T03:37:26.443Z,10.60
2023-03-22T03:39:59.039Z,10.60
2023-03-22T03:42:29.125Z,10.60
2023-03-22T03:44:58.696Z,10.60
2023-03-22T03:47:28.641Z,10.60
2023-03-22T03:49:56.035Z,10.60
2023-03-22T03:52:26.272Z,10.60
2023-03-22T03:54:53.528Z,10.60
2023-03-22T03:57:22.474Z,10.60
2023-03-22T03:59:51.495Z,10.60
2023-03-22T04:02:21.677Z,10.60
2023-03-22T04:04:51.856Z,10.60
2023-03-22T04:07:20.167Z,10.60
2023-03-22T04:09:49.224Z,10.50
2023-03-22T04:12:18.186Z,10.50
2023-03-22T04:14:45.392Z,10.50
2023-03-22T04:17:15.625Z,10.50
2023-03-22T04:19:45.847Z,10.50
2023-03-22T04:22:18.576Z,10.40
2023-03-22T04:24:50.522Z,10.50
2023-03-22T04:27:19.619Z,10.50
2023-03-22T04:29:48.622Z,10.40
2023-03-22T04:32:23.066Z,10.40
2023-03-22T04:34:53.335Z,10.40
2023-03-22T04:37:24.697Z,10.40
2023-03-22T04:39:54.136Z,10.40
2023-03-22T04:42:24.390Z,10.40
2023-03-22T04:44:53.365Z,10.40
2023-03-22T04:47:23.387Z,10.40
2023-03-22T04:49:50.295Z,10.40
2023-03-22T04:52:18.557Z,10.40
2023-03-22T04:54:46.598Z,10.30
2023-03-22T04:57:16.730Z,10.30
2023-03-22T04:59:45.982Z,10.30
2023-03-22T05:02:31.449Z,10.40
2023-03-22T05:04:58.575Z,10.40
2023-03-22T05:07:25.784Z,10.30
2023-03-22T05:09:52.679Z,10.30
2023-03-22T05:12:20.696Z,10.30
2023-03-22T05:14:48.885Z,10.30
2023-03-22T05:17:19.039Z,10.30
2023-03-22T05:19:46.076Z,10.30
2023-03-22T05:22:14.174Z,10.30
2023-03-22T05:24:41.259Z,10.40
2023-03-22T05:27:11.479Z,10.40
2023-03-22T05:29:38.425Z,10.40
2023-03-22T05:32:07.412Z,10.30
2023-03-22T05:34:37.256Z,10.40
2023-03-22T05:37:07.383Z,10.30
2023-03-22T05:39:36.767Z,10.40
2023-03-22T05:42:04.059Z,10.40
2023-03-22T05:44:31.227Z,10.40
2023-03-22T05:46:58.269Z,10.40
2023-03-22T05:49:26.934Z,10.40
2023-03-22T05:51:55.146Z,10.40
2023-03-22T05:54:23.152Z,10.40
2023-03-22T05:56:55.666Z,10.30
2023-03-22T05:59:23.809Z,10.30
2023-03-22T06:01:53.946Z,10.30
2023-03-22T06:04:23.987Z,10.30
2023-03-22T06:06:53.968Z,10.30
2023-03-22T06:09:24.144Z,10.30
2023-03-22T06:11:52.153Z,10.40
2023-03-22T06:14:21.243Z,10.40
2023-03-22T06:16:52.220Z,10.40
2023-03-22T06:19:21.411Z,10.40
2023-03-22T06:21:53.114Z,10.40
2023-03-22T06:24:20.200Z,10.40
2023-03-22T06:26:50.647Z,10.40
2023-03-22T06:29:17.736Z,10.40
2023-03-22T06:31:48.003Z,10.40
2023-03-22T06:34:15.034Z,10.50
2023-03-22T06:36:48.145Z,10.50
2023-03-22T06:39:18.206Z,10.50
2023-03-22T06:41:47.486Z,10.50
2023-03-22T06:44:15.616Z,10.50
2023-03-22T06:46:45.694Z,10.50
2023-03-22T06:49:12.697Z,10.50
2023-03-22T06:51:40.767Z,10.50
2023-03-22T06:54:07.791Z,10.50
2023-03-22T06:56:34.746Z,10.50
2023-03-22T06:59:02.974Z,10.50
2023-03-22T07:01:31.117Z,10.50
2023-03-22T07:03:59.271Z,10.50
2023-03-22T07:06:27.730Z,10.50
2023-03-22T07:08:54.764Z,10.50
2023-03-22T07:11:21.928Z,10.50
2023-03-22T07:13:55.381Z,10.50
2023-03-22T07:16:22.918Z,10.50
2023-03-22T07:18:50.488Z,10.50
2023-03-22T07:21:17.538Z,10.60
2023-03-22T07:23:46.573Z,10.60
2023-03-22T07:26:14.653Z,10.50
2023-03-22T07:28:44.677Z,10.50
2023-03-22T07:31:14.510Z,10.60
2023-03-22T07:33:41.737Z,10.60
2023-03-22T07:36:09.814Z,10.60
2023-03-22T07:38:37.567Z,10.60
2023-03-22T07:41:07.608Z,10.50
2023-03-22T07:43:50.829Z,10.60
2023-03-22T07:46:22.060Z,10.60
2023-03-22T07:48:49.732Z,10.60
2023-03-22T07:51:17.135Z,10.70
2023-03-22T07:53:44.354Z,10.70
2023-03-22T07:56:14.656Z,10.70
2023-03-22T07:58:41.762Z,10.70
2023-03-22T08:01:11.938Z,10.60
2023-03-22T08:03:39.715Z,10.60
2023-03-22T08:06:12.917Z,10.60
2023-03-22T08:08:40.643Z,10.60
2023-03-22T08:11:12.535Z,10.60
2023-03-22T08:13:43.089Z,10.60
2023-03-22T08:16:10.114Z,10.70
2023-03-22T08:18:37.190Z,10.70
2023-03-22T08:21:05.775Z,10.70
2023-03-22T08:23:41.537Z,10.70
2023-03-22T08:26:10.441Z,10.70
2023-03-22T08:28:39.674Z,10.70
2023-03-22T08:31:16.249Z,10.70
2023-03-22T08:33:46.448Z,10.70
2023-03-22T08:36:18.072Z,10.70
2023-03-22T08:38:45.483Z,10.70
2023-03-22T08:41:16.320Z,10.70
2023-03-22T08:43:45.595Z,10.70
2023-03-22T08:46:13.805Z,10.70
2023-03-22T08:48:50.574Z,10.70
2023-03-22T08:51:19.910Z,10.70
2023-03-22T08:53:47.899Z,10.70
2023-03-22T08:56:16.994Z,10.80
2023-03-22T08:58:46.850Z,10.80
2023-03-22T09:01:16.980Z,10.80
2023-03-22T09:03:45.094Z,10.80
2023-03-22T09:06:14.085Z,10.80
2023-03-22T09:08:44.267Z,10.80
2023-03-22T09:11:12.682Z,10.80
2023-03-22T09:13:40.873Z,10.80
2023-03-22T09:16:09.142Z,10.80
2023-03-22T09:18:39.469Z,10.80
2023-03-22T09:21:13.128Z,10.80
2023-03-22T09:23:47.773Z,10.80
2023-03-22T09:26:17.895Z,10.80
2023-03-22T09:28:46.844Z,10.80
2023-03-22T09:31:14.032Z,10.80
2023-03-22T09:33:42.012Z,10.80
2023-03-22T09:36:12.178Z,10.80
2023-03-22T09:38:41.417Z,10.80
2023-03-22T09:41:17.441Z,10.80
2023-03-22T09:44:13.677Z,10.80
2023-03-22T09:46:49.201Z,10.90
2023-03-22T09:49:24.600Z,10.90
2023-03-22T09:51:53.766Z,11.00
2023-03-22T09:54:32.951Z,11.00
2023-03-22T09:57:07.347Z,11.00
2023-03-22T09:59:46.723Z,11.10
2023-03-22T10:02:46.737Z,11.10
2023-03-22T10:05:29.647Z,11.20
2023-03-22T10:07:56.516Z,11.30
2023-03-22T10:10:26.817Z,11.30
2023-03-22T10:13:25.978Z,11.40
2023-03-22T10:15:59.244Z,11.40
2023-03-22T10:18:38.259Z,11.50
2023-03-22T10:21:11.148Z,11.50
2023-03-22T10:24:29.619Z,11.60
2023-03-22T10:26:56.621Z,11.60
2023-03-22T10:29:35.871Z,11.60
2023-03-22T10:32:18.541Z,11.60
2023-03-22T10:34:49.534Z,11.60
2023-03-22T10:37:34.426Z,11.70
2023-03-22T10:40:08.418Z,11.70
2023-03-22T10:42:39.544Z,11.70
2023-03-22T10:45:12.375Z,11.60
2023-03-22T10:48:04.080Z,11.60
2023-03-22T10:50:35.497Z,11.70
2023-03-22T10:53:12.883Z,11.70
2023-03-22T10:55:43.113Z,11.70
2023-03-22T10:58:19.320Z,11.70
2023-03-22T11:00:54.164Z,11.60
2023-03-22T11:03:36.480Z,11.60
2023-03-22T11:06:14.178Z,11.70
2023-03-22T11:08:46.589Z,11.60
2023-03-22T11:11:36.766Z,11.60
2023-03-22T11:14:26.908Z,11.60
2023-03-22T11:17:00.146Z,11.70
2023-03-22T11:19:27.403Z,11.70
2023-03-22T11:21:59.236Z,11.70
2023-03-22T11:24:28.585Z,11.80
2023-03-22T11:27:18.377Z,11.80
2023-03-22T11:29:48.560Z,11.80
2023-03-22T11:32:36.944Z,11.80
2023-03-22T11:35:23.142Z,11.80
2023-03-22T11:37:52.611Z,11.90
2023-03-22T11:40:25.769Z,11.90
2023-03-22T11:43:24.933Z,11.90
2023-03-22T11:45:56.973Z,11.90
2023-03-22T11:48:28.031Z,12.00
2023-03-22T11:50:59.730Z,12.00
2023-03-22T11:53:28.912Z,12.10
2023-03-22T11:55:57.907Z,12.10
2023-03-22T11:58:29.008Z,12.10
2023-03-22T12:00:59.725Z,12.20
2023-03-22T12:03:32.023Z,12.20
2023-03-22T12:06:05.269Z,12.20
2023-03-22T12:08:56.485Z,12.30
2023-03-22T12:11:37.902Z,12.50
2023-03-22T12:14:34.376Z,12.50
2023-03-22T12:17:21.895Z,12.60
2023-03-22T12:19:58.279Z,12.60
2023-03-22T12:22:35.403Z,12.50
2023-03-22T12:25:09.428Z,12.50
2023-03-22T12:27:39.766Z,12.50
2023-03-22T12:30:21.649Z,12.50
2023-03-22T12:33:14.644Z,12.50
2023-03-22T12:35:46.802Z,12.50
2023-03-22T12:38:34.062Z,12.50
2023-03-22T12:41:07.364Z,12.60
2023-03-22T12:43:49.693Z,12.60
2023-03-22T12:46:27.875Z,12.60
2023-03-22T12:49:13.296Z,12.60
2023-03-22T12:51:44.149Z,12.70
2023-03-22T12:54:15.717Z,12.70
2023-03-22T12:56:46.650Z,12.60
2023-03-22T12:59:45.733Z,12.60
2023-03-22T13:02:32.079Z,12.60
2023-03-22T13:05:06.968Z,12.60
2023-03-22T13:07:46.839Z,12.70
2023-03-22T13:10:36.838Z,12.70
2023-03-22T13:13:22.017Z,12.80
2023-03-22T13:16:11.064Z,12.80
2023-03-22T13:18:58.457Z,12.90
2023-03-22T13:21:29.977Z,12.90
2023-03-22T13:24:06.503Z,12.90
2023-03-22T13:26:55.546Z,12.90
2023-03-22T13:29:24.697Z,12.80
2023-03-22T13:31:57.625Z,12.80
2023-03-22T13:34:54.290Z,12.80
2023-03-22T13:37:47.569Z,12.80
2023-03-22T13:40:50.271Z,12.80
2023-03-22T13:43:17.130Z,12.70
2023-03-22T13:46:08.173Z,12.70
2023-03-22T13:48:53.855Z,12.80
2023-03-22T13:51:31.930Z,12.70
2023-03-22T13:54:18.330Z,12.70
2023-03-22T13:56:56.596Z,12.70
2023-03-22T13:59:27.957Z,12.60
2023-03-22T14:02:26.254Z,12.60
2023-03-22T14:04:56.214Z,12.60
2023-03-22T14:07:26.285Z,12.60
2023-03-22T14:10:21.368Z,12.70
2023-03-22T14:13:12.064Z,12.70
2023-03-22T14:15:56.175Z,12.70
2023-03-22T14:18:39.758Z,12.60
2023-03-22T14:21:14.012Z,12.70
